Time;durP1;ratioP1;P1;durP2;ratioP2;P2;SDS_P1;SDS_P2;PMS_P1;PMS_P2;Temp;Humidity;BMP_temperature;BMP_pressure;BME280_temperature;BME280_humidity;BME280_pressure;Samples;Min_cycle;Max_cycle;Signal;HPM_P1;HPM_P2
2022/10/15 00:01:42;;;;;;;52.47;33.03;;;12.70;99.90;;;;;;4940643;29;20039;-66
2022/10/15 00:04:07;;;;;;;56.78;32.95;;;12.60;99.90;;;;;;4958200;29;20106;-66
2022/10/15 00:06:33;;;;;;;57.25;32.67;;;12.80;99.90;;;;;;4940389;29;20062;-66
2022/10/15 00:08:59;;;;;;;53.80;32.30;;;12.70;99.90;;;;;;4957989;29;20085;-66
2022/10/15 00:11:26;;;;;;;53.03;31.42;;;12.70;99.90;;;;;;4940551;29;20078;-66
2022/10/15 00:13:53;;;;;;;48.40;29.98;;;12.60;99.90;;;;;;4957826;29;20031;-66
2022/10/15 00:16:21;;;;;;;49.40;30.95;;;12.70;99.90;;;;;;4957384;29;20121;-66
2022/10/15 00:18:47;;;;;;;53.10;32.50;;;12.60;99.90;;;;;;4957749;29;20039;-66
2022/10/15 00:21:15;;;;;;;47.88;30.05;;;12.70;99.90;;;;;;4957685;29;20106;-66
2022/10/15 00:23:41;;;;;;;49.83;30.05;;;12.50;99.90;;;;;;4957685;29;20043;-66
2022/10/15 00:26:12;;;;;;;49.38;29.95;;;12.60;99.90;;;;;;4957591;29;20035;-66
2022/10/15 00:28:38;;;;;;;54.88;30.83;;;12.60;99.90;;;;;;4940274;29;20410;-66
2022/10/15 00:31:08;;;;;;;54.33;31.17;;;12.50;99.90;;;;;;4957722;29;20406;-66
2022/10/15 00:33:34;;;;;;;58.45;32.13;;;12.60;99.90;;;;;;4940146;29;20039;-66
2022/10/15 00:36:20;;;;;;;55.35;30.45;;;12.50;99.90;;;;;;4940413;29;20098;-66
2022/10/15 00:38:46;;;;;;;47.67;30.10;;;12.50;99.90;;;;;;4957547;29;20117;-66
2022/10/15 00:41:23;;;;;;;56.22;31.33;;;12.60;99.90;;;;;;4956633;28;20147;-65
2022/10/15 00:43:53;;;;;;;51.05;29.23;;;12.30;99.90;;;;;;4939772;29;20054;-66
2022/10/15 00:46:40;;;;;;;52.67;32.42;;;12.60;99.90;;;;;;4952216;29;20043;-65
2022/10/15 00:49:23;;;;;;;57.58;30.63;;;12.50;99.90;;;;;;4940071;29;20039;-66
2022/10/15 00:51:54;;;;;;;56.47;31.23;;;12.80;99.90;;;;;;4957324;29;20379;-66
2022/10/15 00:54:21;;;;;;;53.65;32.22;;;12.50;99.90;;;;;;4939827;29;20047;-66
2022/10/15 00:56:49;;;;;;;50.90;31.85;;;12.60;99.90;;;;;;4956878;29;20402;-66
2022/10/15 00:59:16;;;;;;;54.85;32.67;;;12.50;99.90;;;;;;4939847;29;20055;-66
2022/10/15 01:01:42;;;;;;;53.35;30.75;;;12.50;99.90;;;;;;4939693;29;20054;-66
2022/10/15 01:04:07;;;;;;;61.67;35.08;;;12.50;99.90;;;;;;4955971;29;20035;-65
2022/10/15 01:06:33;;;;;;;58.00;33.63;;;12.50;99.90;;;;;;4956524;29;20047;-66
2022/10/15 01:08:59;;;;;;;57.85;31.85;;;12.40;99.90;;;;;;4956812;29;20055;-66
2022/10/15 01:11:31;;;;;;;51.53;33.42;;;12.50;99.90;;;;;;4956756;28;20090;-66
2022/10/15 01:14:38;;;;;;;52.72;33.22;;;12.50;99.90;;;;;;4939397;29;20050;-66
2022/10/15 01:17:07;;;;;;;57.38;33.22;;;12.50;99.90;;;;;;4956468;29;20039;-66
2022/10/15 01:19:55;;;;;;;57.45;32.88;;;12.40;99.90;;;;;;4926415;29;20043;-66
2022/10/15 01:22:26;;;;;;;54.67;32.63;;;12.40;99.90;;;;;;4939511;29;20062;-66
2022/10/15 01:24:52;;;;;;;60.45;33.83;;;12.30;99.90;;;;;;4939352;29;20130;-66
2022/10/15 01:27:31;;;;;;;56.55;33.55;;;12.40;99.90;;;;;;4939255;29;20129;-66
2022/10/15 01:30:17;;;;;;;59.95;34.47;;;12.40;99.90;;;;;;4927492;29;20054;-66
2022/10/15 01:32:47;;;;;;;54.30;32.03;;;12.30;99.90;;;;;;4939018;29;20047;-66
2022/10/15 01:35:36;;;;;;;54.53;32.63;;;12.30;99.90;;;;;;4938981;29;20042;-66
2022/10/15 01:38:12;;;;;;;61.70;33.30;;;12.40;99.90;;;;;;4938788;29;20039;-66
2022/10/15 01:40:45;;;;;;;51.33;32.33;;;12.30;99.90;;;;;;4956389;29;20127;-66
2022/10/15 01:43:15;;;;;;;59.60;34.13;;;12.50;99.90;;;;;;4956181;28;20070;-66
2022/10/15 01:45:50;;;;;;;53.55;31.75;;;12.30;99.90;;;;;;4956221;28;20416;-66
2022/10/15 01:48:17;;;;;;;52.45;34.17;;;12.60;99.90;;;;;;4956041;28;20122;-65
2022/10/15 01:50:47;;;;;;;50.92;32.92;;;12.60;99.90;;;;;;4956369;29;20043;-66
2022/10/15 01:53:25;;;;;;;51.67;32.58;;;12.50;99.90;;;;;;4954809;28;20313;-66
2022/10/15 01:55:55;;;;;;;50.85;32.72;;;12.50;99.90;;;;;;4956110;28;20047;-66
2022/10/15 01:58:23;;;;;;;53.53;32.42;;;12.50;99.90;;;;;;4938606;29;20418;-66
2022/10/15 02:00:50;;;;;;;54.22;31.27;;;12.40;99.90;;;;;;4938691;29;20043;-66
2022/10/15 02:03:16;;;;;;;52.28;31.88;;;12.50;99.90;;;;;;4955600;28;20606;-66
2022/10/15 02:05:50;;;;;;;52.20;32.08;;;12.50;99.90;;;;;;4955959;28;20055;-66
2022/10/15 02:08:38;;;;;;;51.40;31.65;;;12.50;99.90;;;;;;4938486;29;20461;-66
2022/10/15 02:11:14;;;;;;;50.92;32.50;;;12.40;99.90;;;;;;4938385;29;20039;-66
2022/10/15 02:14:01;;;;;;;51.13;30.20;;;12.40;99.90;;;;;;4938477;29;20576;-66
2022/10/15 02:16:48;;;;;;;52.55;31.38;;;12.40;99.90;;;;;;4955734;29;20071;-66
2022/10/15 02:19:20;;;;;;;57.35;33.00;;;12.30;99.90;;;;;;4942102;29;20161;-66
2022/10/15 02:21:51;;;;;;;53.25;32.22;;;12.30;99.90;;;;;;4955515;28;20114;-66
2022/10/15 02:24:25;;;;;;;53.25;32.15;;;12.40;99.90;;;;;;4955309;28;20047;-66
2022/10/15 02:26:54;;;;;;;55.40;33.60;;;12.20;99.90;;;;;;4955877;29;20142;-66
2022/10/15 02:29:22;;;;;;;58.63;32.30;;;12.30;99.90;;;;;;4938341;29;20094;-66
2022/10/15 02:31:49;;;;;;;55.17;32.67;;;12.20;99.90;;;;;;4955461;28;20047;-66
2022/10/15 02:34:21;;;;;;;50.60;30.88;;;12.30;99.90;;;;;;4955181;29;20476;-66
2022/10/15 02:36:48;;;;;;;57.95;32.28;;;12.20;99.90;;;;;;4955127;28;20035;-66
2022/10/15 02:39:18;;;;;;;56.38;31.52;;;12.20;99.90;;;;;;4938187;29;20367;-66
2022/10/15 02:41:45;;;;;;;52.33;31.20;;;12.30;99.90;;;;;;4937994;29;20047;-66
2022/10/15 02:44:11;;;;;;;56.75;31.08;;;12.30;99.90;;;;;;4955115;29;20063;-65
2022/10/15 02:46:37;;;;;;;51.22;29.80;;;12.20;99.90;;;;;;4955171;29;20055;-66
2022/10/15 02:49:02;;;;;;;53.03;31.67;;;12.30;99.90;;;;;;4955139;29;20078;-66
2022/10/15 02:51:34;;;;;;;50.72;30.50;;;12.20;99.90;;;;;;4921985;29;20173;-66
2022/10/15 02:54:01;;;;;;;44.42;29.33;;;12.30;99.90;;;;;;4954936;28;20101;-66
2022/10/15 02:56:27;;;;;;;49.45;29.40;;;12.00;99.90;;;;;;4954931;29;20066;-66
2022/10/15 02:58:53;;;;;;;53.90;30.45;;;12.20;99.90;;;;;;4937746;29;20187;-66
2022/10/15 03:01:18;;;;;;;50.97;29.00;;;12.20;99.90;;;;;;4937715;29;20130;-66
2022/10/15 03:03:44;;;;;;;51.17;29.88;;;12.30;99.90;;;;;;4954600;28;20035;-66
2022/10/15 03:06:10;;;;;;;49.60;28.42;;;12.20;99.90;;;;;;4954504;29;20087;-66
2022/10/15 03:08:35;;;;;;;49.25;31.05;;;12.20;99.90;;;;;;4937672;29;20066;-66
2022/10/15 03:11:01;;;;;;;47.28;26.92;;;12.20;99.90;;;;;;4937527;29;20039;-66
2022/10/15 03:13:28;;;;;;;51.05;29.58;;;12.30;99.90;;;;;;4954632;29;20375;-66
2022/10/15 03:15:53;;;;;;;44.00;27.98;;;12.30;99.90;;;;;;4937867;29;20124;-66
2022/10/15 03:18:19;;;;;;;49.25;29.33;;;12.20;99.90;;;;;;4954577;29;20192;-66
2022/10/15 03:20:54;;;;;;;48.75;28.15;;;12.10;99.90;;;;;;4954989;28;20522;-66
2022/10/15 03:23:20;;;;;;;46.17;28.40;;;12.00;99.90;;;;;;4954661;29;20047;-66
2022/10/15 03:25:46;;;;;;;47.67;27.88;;;12.20;99.90;;;;;;4954463;29;20166;-66
2022/10/15 03:28:12;;;;;;;48.78;28.38;;;12.20;99.90;;;;;;4937639;29;20058;-66
2022/10/15 03:30:38;;;;;;;51.30;28.98;;;12.20;99.90;;;;;;4937393;29;20057;-66
2022/10/15 03:33:03;;;;;;;51.25;28.13;;;12.20;99.90;;;;;;4937338;29;20053;-66
2022/10/15 03:35:29;;;;;;;52.22;30.30;;;12.00;99.90;;;;;;4937425;29;20086;-66
2022/10/15 03:37:55;;;;;;;52.20;28.80;;;12.10;99.90;;;;;;4954460;29;20039;-66
2022/10/15 03:40:20;;;;;;;54.00;28.90;;;12.10;99.90;;;;;;4937346;29;20481;-66
2022/10/15 03:42:50;;;;;;;54.28;29.40;;;12.20;99.90;;;;;;4937164;29;20046;-66
2022/10/15 03:45:17;;;;;;;55.50;32.70;;;12.20;99.90;;;;;;4954489;29;20039;-66
2022/10/15 03:47:43;;;;;;;55.22;29.33;;;12.20;99.90;;;;;;4937407;29;20082;-66
2022/10/15 03:50:08;;;;;;;53.00;31.05;;;12.20;99.90;;;;;;4937340;29;20078;-66
2022/10/15 03:52:35;;;;;;;53.58;31.67;;;12.00;99.90;;;;;;4954341;28;20067;-66
2022/10/15 03:55:01;;;;;;;52.97;31.40;;;12.10;99.90;;;;;;4954447;29;20110;-66
2022/10/15 03:57:27;;;;;;;55.70;32.15;;;12.00;99.90;;;;;;4954547;29;20466;-66
2022/10/15 03:59:52;;;;;;;57.85;32.60;;;12.10;99.90;;;;;;4954297;29;20035;-66
2022/10/15 04:02:18;;;;;;;63.47;32.65;;;12.10;99.90;;;;;;4937237;29;20115;-66
2022/10/15 04:04:43;;;;;;;63.97;33.78;;;12.10;99.90;;;;;;4937071;29;20110;-66
2022/10/15 04:07:09;;;;;;;61.45;35.13;;;;;;;;;;4937017;29;20079;-66
2022/10/15 04:09:35;;;;;;;66.70;36.20;;;12.30;99.90;;;;;;4954308;29;20055;-66
2022/10/15 04:12:00;;;;;;;70.68;35.63;;;12.10;99.90;;;;;;4937167;29;20035;-66
2022/10/15 04:14:26;;;;;;;70.82;38.50;;;12.10;99.90;;;;;;4937079;29;20047;-66
2022/10/15 04:16:52;;;;;;;72.00;37.72;;;12.20;99.90;;;;;;4955276;28;20126;-66
2022/10/15 04:19:17;;;;;;;71.90;37.75;;;12.40;99.90;;;;;;4940766;29;20047;-66
2022/10/15 04:21:43;;;;;;;74.50;39.83;;;12.20;99.90;;;;;;4957954;29;20505;-66
2022/10/15 04:24:08;;;;;;;72.80;38.50;;;12.20;99.90;;;;;;4957441;29;20035;-66
2022/10/15 04:26:34;;;;;;;76.50;40.40;;;12.20;99.90;;;;;;4940495;29;20078;-66
2022/10/15 04:29:00;;;;;;;74.65;40.13;;;12.10;99.90;;;;;;4957435;29;20164;-66
2022/10/15 04:31:26;;;;;;;73.38;39.03;;;12.00;99.90;;;;;;4957376;29;20047;-66
2022/10/15 04:33:52;;;;;;;76.93;41.47;;;12.10;99.90;;;;;;4957321;29;20094;-66
2022/10/15 04:36:17;;;;;;;76.35;43.10;;;12.10;99.90;;;;;;4957583;29;20047;-66
2022/10/15 04:38:43;;;;;;;85.70;43.33;;;12.10;99.90;;;;;;4957223;29;20043;-66
2022/10/15 04:41:10;;;;;;;82.05;41.67;;;12.30;99.90;;;;;;4940087;29;20044;-66
2022/10/15 04:43:37;;;;;;;81.22;43.53;;;12.10;99.90;;;;;;4957281;29;20039;-66
2022/10/15 04:46:04;;;;;;;91.00;47.13;;;12.00;99.90;;;;;;4936702;29;20081;-66
2022/10/15 04:48:31;;;;;;;84.60;44.78;;;12.30;99.90;;;;;;4957246;28;20398;-66
2022/10/15 04:51:08;;;;;;;82.03;42.92;;;12.20;99.90;;;;;;4957142;28;20050;-66
2022/10/15 04:53:34;;;;;;;89.80;44.50;;;12.10;99.90;;;;;;4957037;28;20042;-66
2022/10/15 04:56:05;;;;;;;87.00;43.88;;;12.30;99.90;;;;;;4939737;29;20047;-66
2022/10/15 04:58:32;;;;;;;87.57;45.33;;;12.40;99.90;;;;;;4956949;29;20082;-65
2022/10/15 05:01:02;;;;;;;83.88;45.83;;;12.00;99.90;;;;;;4940111;29;20130;-66
2022/10/15 05:03:29;;;;;;;87.40;44.95;;;12.20;99.90;;;;;;4926780;29;20494;-66
2022/10/15 05:06:06;;;;;;;86.55;46.25;;;12.20;99.90;;;;;;4956764;28;20043;-67
2022/10/15 05:08:34;;;;;;;88.13;46.08;;;12.20;99.90;;;;;;4939765;29;20066;-66
2022/10/15 05:11:08;;;;;;;88.35;47.00;;;12.10;99.90;;;;;;4956718;29;20039;-65
2022/10/15 05:13:33;;;;;;;90.97;46.93;;;12.10;99.90;;;;;;4939414;28;20051;-66
2022/10/15 05:16:14;;;;;;;90.85;45.38;;;12.20;99.90;;;;;;4956932;28;20039;-66
2022/10/15 05:18:41;;;;;;;87.38;45.95;;;12.10;99.90;;;;;;4956561;28;20053;-66
2022/10/15 05:21:07;;;;;;;89.07;46.78;;;12.20;99.90;;;;;;4923495;29;20055;-66
2022/10/15 05:23:33;;;;;;;94.45;47.90;;;;;;;;;;4939507;29;20043;-64
2022/10/15 05:26:04;;;;;;;88.95;45.45;;;12.20;99.90;;;;;;4939299;29;20050;-66
2022/10/15 05:28:30;;;;;;;89.50;44.33;;;12.20;99.90;;;;;;4939346;29;20051;-66
2022/10/15 05:31:02;;;;;;;90.22;45.08;;;12.30;99.90;;;;;;4939097;29;20045;-66
2022/10/15 05:33:27;;;;;;;86.65;44.50;;;12.20;99.90;;;;;;4956592;29;20039;-66
2022/10/15 05:35:53;;;;;;;92.47;45.47;;;12.20;99.90;;;;;;4939383;29;20508;-66
2022/10/15 05:38:18;;;;;;;82.72;43.80;;;12.30;99.90;;;;;;4939034;29;20676;-66
2022/10/15 05:40:48;;;;;;;82.40;45.28;;;12.30;99.90;;;;;;4939250;29;20130;-66
2022/10/15 05:43:14;;;;;;;91.95;45.45;;;11.90;99.90;;;;;;4956194;29;20502;-66
2022/10/15 05:45:40;;;;;;;85.15;44.53;;;12.40;99.90;;;;;;4942158;29;20546;-66
2022/10/15 05:48:06;;;;;;;89.63;46.25;;;12.30;99.90;;;;;;4956173;29;20055;-66
2022/10/15 05:50:32;;;;;;;90.93;45.85;;;12.30;99.90;;;;;;4923106;29;20047;-66
2022/10/15 05:52:57;;;;;;;90.65;45.55;;;12.20;99.90;;;;;;4955797;28;20045;-66
2022/10/15 05:55:23;;;;;;;92.35;45.90;;;12.30;99.90;;;;;;4938811;29;20117;-66
2022/10/15 05:57:48;;;;;;;95.15;45.70;;;12.30;99.90;;;;;;4955893;29;20494;-66
2022/10/15 06:00:15;;;;;;;88.38;48.10;;;12.30;99.90;;;;;;4955883;29;20039;-66
2022/10/15 06:02:41;;;;;;;88.07;45.33;;;12.20;99.90;;;;;;4955847;29;20067;-66
2022/10/15 06:05:07;;;;;;;88.47;47.33;;;12.40;99.90;;;;;;4955649;29;20118;-66
2022/10/15 06:07:32;;;;;;;87.28;45.15;;;12.20;99.90;;;;;;4938415;29;20122;-66
2022/10/15 06:09:58;;;;;;;93.82;46.78;;;12.30;99.90;;;;;;4938229;29;20054;-66
2022/10/15 06:12:23;;;;;;;90.85;48.50;;;12.50;99.90;;;;;;4955777;28;20043;-66
2022/10/15 06:14:49;;;;;;;92.45;45.20;;;12.30;99.90;;;;;;4955557;29;20039;-66
2022/10/15 06:17:14;;;;;;;90.70;47.35;;;12.30;99.90;;;;;;4938365;29;20107;-66
2022/10/15 06:19:40;;;;;;;92.35;45.50;;;12.20;99.90;;;;;;4955558;29;20047;-65
2022/10/15 06:22:05;;;;;;;89.97;43.67;;;12.40;99.90;;;;;;4938321;29;20120;-65
2022/10/15 06:24:31;;;;;;;94.78;45.97;;;12.40;99.90;;;;;;4955239;29;20102;-66
2022/10/15 06:26:58;;;;;;;85.22;47.08;;;12.40;99.90;;;;;;4955694;29;20050;-66
2022/10/15 06:29:24;;;;;;;94.47;47.38;;;12.40;99.90;;;;;;4955423;29;20043;-66
2022/10/15 06:31:49;;;;;;;88.60;44.22;;;12.40;99.90;;;;;;4938189;29;20540;-66
2022/10/15 06:34:15;;;;;;;90.75;46.55;;;12.50;99.90;;;;;;4937908;29;20098;-65
2022/10/15 06:36:40;;;;;;;92.18;48.42;;;12.40;99.90;;;;;;4955319;29;20038;-66
2022/10/15 06:39:06;;;;;;;101.53;47.67;;;12.50;99.90;;;;;;4937447;28;20490;-66
2022/10/15 06:41:31;;;;;;;94.07;47.35;;;12.60;99.90;;;;;;4938390;29;20046;-66
2022/10/15 06:43:57;;;;;;;94.57;47.90;;;12.50;99.90;;;;;;4954949;29;20090;-66
2022/10/15 06:46:22;;;;;;;88.07;47.00;;;12.50;99.90;;;;;;4938647;29;20053;-66
2022/10/15 06:48:50;;;;;;;87.13;46.53;;;12.40;99.90;;;;;;4955121;29;20083;-66
2022/10/15 06:51:16;;;;;;;90.40;46.03;;;12.50;99.90;;;;;;4954973;29;20089;-66
2022/10/15 06:53:42;;;;;;;84.78;44.63;;;12.60;99.90;;;;;;4954768;28;20102;-66
2022/10/15 06:56:08;;;;;;;88.78;47.22;;;12.60;99.90;;;;;;4937937;29;20069;-66
2022/10/15 06:58:34;;;;;;;91.10;47.30;;;12.80;99.90;;;;;;4955041;29;20489;-66
2022/10/15 07:01:04;;;;;;;90.78;47.00;;;12.70;99.90;;;;;;4954832;28;20167;-66
2022/10/15 07:03:30;;;;;;;90.07;45.28;;;12.60;99.90;;;;;;4947230;28;20070;-66
2022/10/15 07:06:01;;;;;;;85.85;44.67;;;12.70;99.90;;;;;;4954642;29;20035;-67
2022/10/15 07:08:27;;;;;;;82.75;44.15;;;12.60;99.90;;;;;;4937559;29;20070;-66
2022/10/15 07:10:52;;;;;;;91.57;44.75;;;12.80;99.90;;;;;;4955460;28;20043;-66
2022/10/15 07:13:18;;;;;;;91.60;46.85;;;12.70;99.90;;;;;;4954841;28;20047;-66
2022/10/15 07:15:45;;;;;;;88.75;45.92;;;12.70;99.90;;;;;;4954699;29;20033;-66
2022/10/15 07:18:10;;;;;;;92.20;46.30;;;12.70;99.90;;;;;;4934010;29;20520;-66
2022/10/15 07:20:36;;;;;;;85.65;43.67;;;12.90;99.90;;;;;;4927676;29;20047;-66
2022/10/15 07:23:02;;;;;;;82.75;45.45;;;12.70;99.90;;;;;;4937419;29;20043;-67
2022/10/15 07:25:27;;;;;;;85.90;45.20;;;12.70;99.90;;;;;;4954898;29;20114;-66
2022/10/15 07:27:54;;;;;;;86.43;43.83;;;12.90;99.90;;;;;;4937862;29;20039;-67
2022/10/15 07:30:20;;;;;;;84.28;44.60;;;12.90;99.90;;;;;;4954415;28;20046;-66
2022/10/15 07:32:46;;;;;;;81.47;42.70;;;13.00;99.90;;;;;;4954353;28;20044;-66
2022/10/15 07:35:12;;;;;;;82.53;42.80;;;13.00;99.90;;;;;;4954467;28;20043;-66
2022/10/15 07:37:37;;;;;;;79.72;43.58;;;13.00;99.90;;;;;;4954398;28;20043;-65
2022/10/15 07:40:03;;;;;;;79.38;41.55;;;13.00;99.90;;;;;;4953546;28;20031;-65
2022/10/15 07:42:29;;;;;;;83.00;43.45;;;13.10;99.90;;;;;;4959579;28;20042;-66
2022/10/15 07:44:54;;;;;;;84.75;43.88;;;13.00;99.90;;;;;;4944330;29;20482;-66
2022/10/15 07:47:20;;;;;;;85.88;44.08;;;13.10;99.90;;;;;;4937009;29;20505;-65
2022/10/15 07:49:46;;;;;;;84.55;43.92;;;13.20;99.90;;;;;;4928067;29;20039;-66
2022/10/15 07:52:11;;;;;;;81.43;43.97;;;13.10;99.90;;;;;;4923878;28;20126;-65
2022/10/15 07:54:37;;;;;;;81.15;42.72;;;13.20;99.90;;;;;;4952979;28;20549;-65
2022/10/15 07:57:03;;;;;;;86.10;43.78;;;13.00;99.90;;;;;;4927156;29;20044;-65
2022/10/15 07:59:28;;;;;;;83.43;43.35;;;13.10;99.90;;;;;;4925085;29;20418;-65
2022/10/15 08:01:54;;;;;;;88.22;45.47;;;13.40;99.90;;;;;;4943466;29;20040;-66
2022/10/15 08:04:19;;;;;;;82.75;45.15;;;13.30;99.90;;;;;;4947843;28;20035;-66
2022/10/15 08:06:45;;;;;;;89.70;45.88;;;13.10;99.90;;;;;;4959508;28;20049;-66
2022/10/15 08:09:11;;;;;;;86.70;45.15;;;13.30;99.90;;;;;;4940132;29;20062;-66
2022/10/15 08:11:37;;;;;;;91.63;45.40;;;13.10;99.90;;;;;;4958001;29;20163;-64
2022/10/15 08:14:02;;;;;;;90.30;46.13;;;13.30;99.90;;;;;;4939975;29;20039;-65
2022/10/15 08:16:28;;;;;;;92.10;46.65;;;13.20;99.90;;;;;;4957493;28;20050;-66
2022/10/15 08:18:54;;;;;;;92.93;46.83;;;13.20;99.90;;;;;;4957277;28;20370;-66
2022/10/15 08:21:20;;;;;;;99.75;46.15;;;13.10;99.90;;;;;;4962617;28;20098;-63
2022/10/15 08:23:46;;;;;;;97.70;47.55;;;13.10;99.90;;;;;;4941072;28;20047;-64
2022/10/15 08:26:11;;;;;;;90.75;43.63;;;13.00;99.90;;;;;;4957504;28;20044;-65
2022/10/15 08:28:37;;;;;;;97.20;46.60;;;13.20;99.90;;;;;;4939924;28;20039;-66
2022/10/15 08:31:05;;;;;;;103.05;46.05;;;13.10;99.90;;;;;;4940047;29;20043;-66
2022/10/15 08:33:31;;;;;;;100.90;46.80;;;13.00;99.90;;;;;;4943569;29;20419;-64
2022/10/15 08:35:57;;;;;;;93.15;43.42;;;13.10;99.90;;;;;;4943811;28;20043;-64
2022/10/15 08:38:23;;;;;;;96.22;44.63;;;13.00;99.90;;;;;;4922692;29;20040;-65
2022/10/15 08:40:52;;;;;;;95.90;43.47;;;13.00;99.90;;;;;;4941212;29;20039;-64
2022/10/15 08:43:27;;;;;;;87.00;41.92;;;13.00;99.90;;;;;;4939706;29;20407;-64
2022/10/15 08:46:01;;;;;;;94.07;42.83;;;12.90;99.90;;;;;;4939732;29;20043;-64
2022/10/15 08:48:36;;;;;;;86.78;41.30;;;13.10;99.90;;;;;;4939568;28;20052;-64
2022/10/15 08:51:08;;;;;;;92.28;42.58;;;13.00;99.90;;;;;;4925836;29;20039;-64
2022/10/15 08:53:44;;;;;;;85.15;39.35;;;13.10;99.90;;;;;;4943236;28;20050;-66
2022/10/15 08:56:25;;;;;;;85.22;41.20;;;13.10;99.90;;;;;;4936874;28;20058;-65
2022/10/15 08:58:57;;;;;;;87.03;40.63;;;13.10;99.90;;;;;;4947434;28;20039;-66
2022/10/15 09:01:33;;;;;;;80.45;39.85;;;13.10;99.90;;;;;;4938687;29;20505;-66
2022/10/15 09:04:14;;;;;;;87.47;41.10;;;13.00;99.90;;;;;;4945674;28;20043;-66
2022/10/15 09:06:40;;;;;;;95.88;42.35;;;13.00;99.90;;;;;;4928502;29;20115;-66
2022/10/15 09:09:30;;;;;;;89.45;41.97;;;12.90;99.90;;;;;;4917400;29;20136;-66
2022/10/15 09:12:02;;;;;;;86.80;41.47;;;13.00;99.90;;;;;;4917004;29;20499;-66
2022/10/15 09:14:33;;;;;;;88.32;38.97;;;12.90;99.90;;;;;;4925174;29;20048;-66
2022/10/15 09:17:04;;;;;;;78.53;37.40;;;13.10;99.90;;;;;;4926459;29;20046;-66
2022/10/15 09:19:33;;;;;;;79.35;37.70;;;13.00;99.90;;;;;;4918551;29;20043;-65
2022/10/15 09:22:01;;;;;;;82.55;37.25;;;13.00;99.90;;;;;;4917269;29;20051;-66
2022/10/15 09:24:29;;;;;;;84.72;38.78;;;13.10;99.90;;;;;;4921341;29;20546;-66
2022/10/15 09:27:13;;;;;;;83.95;38.88;;;13.00;99.90;;;;;;4923537;29;20521;-66
2022/10/15 09:29:54;;;;;;;77.07;33.97;;;13.00;99.90;;;;;;4919476;29;20098;-65
2022/10/15 09:32:38;;;;;;;78.50;34.85;;;13.20;99.90;;;;;;4918837;29;20040;-65
2022/10/15 09:35:46;;;;;;;67.03;32.75;;;13.10;99.90;;;;;;4926454;29;20114;-65
2022/10/15 09:38:32;;;;;;;64.53;32.42;;;13.20;99.90;;;;;;4877994;29;20137;-65
2022/10/15 09:41:02;;;;;;;70.03;33.10;;;13.30;99.90;;;;;;4917638;29;20063;-65
2022/10/15 09:43:35;;;;;;;64.80;30.77;;;13.30;99.90;;;;;;4921339;29;20368;-65
2022/10/15 09:46:04;;;;;;;59.78;29.67;;;13.30;99.90;;;;;;4917788;29;20044;-66
2022/10/15 09:48:46;;;;;;;58.33;29.20;;;13.30;99.90;;;;;;4926126;29;20582;-69
2022/10/15 09:51:28;;;;;;;49.75;26.35;;;13.50;99.90;;;;;;4919245;29;20055;-69
2022/10/15 09:54:04;;;;;;;50.90;26.77;;;13.60;99.90;;;;;;4918044;29;20052;-69
2022/10/15 09:56:49;;;;;;;43.78;23.77;;;13.50;99.90;;;;;;4917830;29;20046;-69
2022/10/15 09:59:16;;;;;;;40.72;21.38;;;13.60;99.90;;;;;;4911598;29;20527;-69
2022/10/15 10:02:02;;;;;;;42.00;22.35;;;13.60;99.90;;;;;;4899442;29;20032;-68
2022/10/15 10:04:30;;;;;;;40.92;22.42;;;13.70;99.90;;;;;;4920800;29;20557;-69
2022/10/15 10:06:59;;;;;;;38.97;20.15;;;13.70;99.90;;;;;;4935891;29;20046;-69
2022/10/15 10:09:30;;;;;;;35.17;18.75;;;13.80;99.90;;;;;;4938470;28;20051;-70
2022/10/15 10:12:02;;;;;;;33.03;19.15;;;13.80;99.90;;;;;;4922912;29;20047;-69
2022/10/15 10:14:30;;;;;;;37.97;20.55;;;13.80;99.90;;;;;;4951681;28;20635;-67
2022/10/15 10:17:06;;;;;;;39.95;18.77;;;13.80;99.90;;;;;;4935028;28;20046;-68
2022/10/15 10:19:32;;;;;;;30.15;18.42;;;;;;;;;;4938212;29;20127;-68
2022/10/15 10:22:17;;;;;;;32.75;19.65;;;13.70;99.90;;;;;;4938862;28;20490;-68
2022/10/15 10:24:44;;;;;;;31.30;18.27;;;14.00;99.90;;;;;;4938155;28;20039;-68
2022/10/15 10:27:28;;;;;;;25.85;17.13;;;14.00;99.90;;;;;;4955083;29;20470;-69
2022/10/15 10:29:58;;;;;;;30.05;16.60;;;14.10;99.90;;;;;;4937991;29;20512;-68
2022/10/15 10:32:32;;;;;;;27.38;16.67;;;14.10;99.90;;;;;;4938852;28;20051;-69
2022/10/15 10:35:00;;;;;;;24.80;14.80;;;14.00;99.90;;;;;;4936790;28;20047;-68
2022/10/15 10:37:26;;;;;;;23.00;15.70;;;14.20;99.90;;;;;;4934918;29;20039;-68
2022/10/15 10:39:57;;;;;;;23.17;14.05;;;14.20;99.90;;;;;;4954815;29;20039;-69
2022/10/15 10:42:26;;;;;;;25.15;14.73;;;14.40;99.90;;;;;;4937616;29;20119;-69
2022/10/15 10:44:52;;;;;;;20.92;13.63;;;14.30;99.90;;;;;;4955126;29;20107;-68
2022/10/15 10:47:25;;;;;;;22.83;13.95;;;14.30;99.90;;;;;;4956845;28;20490;-69
2022/10/15 10:49:57;;;;;;;21.25;13.45;;;14.50;99.90;;;;;;4927388;29;20387;-68
2022/10/15 10:52:27;;;;;;;20.55;12.32;;;14.50;99.90;;;;;;4937702;29;20047;-69
2022/10/15 10:55:31;;;;;;;22.45;14.05;;;14.50;99.90;;;;;;4940562;29;20395;-69
2022/10/15 10:57:58;;;;;;;21.27;13.88;;;14.50;99.90;;;;;;4925436;28;20145;-70
2022/10/15 11:00:39;;;;;;;24.58;14.32;;;14.50;99.90;;;;;;4954788;29;20039;-69
2022/10/15 11:03:24;;;;;;;18.55;12.70;;;14.70;99.90;;;;;;4940099;29;20118;-69
2022/10/15 11:06:15;;;;;;;19.75;12.63;;;14.80;99.90;;;;;;4954593;29;20043;-68
2022/10/15 11:08:53;;;;;;;23.88;14.18;;;14.60;99.90;;;;;;4937039;29;20055;-69
2022/10/15 11:11:50;;;;;;;21.92;13.50;;;14.60;99.90;;;;;;4937465;29;20049;-68
2022/10/15 11:14:45;;;;;;;20.60;13.02;;;14.80;99.90;;;;;;4937697;29;20493;-68
2022/10/15 11:17:47;;;;;;;22.35;13.02;;;14.80;99.90;;;;;;4936115;29;20059;-68
2022/10/15 11:20:12;;;;;;;24.90;14.27;;;14.70;99.90;;;;;;4932543;29;20055;-69
2022/10/15 11:22:41;;;;;;;21.98;14.23;;;15.00;99.90;;;;;;4937525;29;20621;-68
2022/10/15 11:25:45;;;;;;;20.75;13.75;;;15.10;99.90;;;;;;4954894;28;20520;-68
2022/10/15 11:28:41;;;;;;;22.58;14.55;;;15.00;99.90;;;;;;4931793;29;20047;-68
2022/10/15 11:31:34;;;;;;;25.50;15.27;;;15.20;99.90;;;;;;4941077;29;20102;-69
2022/10/15 11:34:19;;;;;;;25.17;16.40;;;15.10;99.90;;;;;;4958248;29;20402;-69
2022/10/15 11:37:20;;;;;;;30.67;16.77;;;15.10;99.90;;;;;;4949228;29;20043;-69
2022/10/15 11:40:17;;;;;;;27.45;16.40;;;15.10;99.90;;;;;;4957251;29;20046;-68
2022/10/15 11:42:54;;;;;;;25.98;17.33;;;15.10;99.90;;;;;;4961358;28;20393;-66
2022/10/15 11:46:08;;;;;;;24.30;16.27;;;15.00;99.90;;;;;;4965650;28;20066;-68
2022/10/15 11:48:59;;;;;;;25.20;15.80;;;15.10;99.90;;;;;;4935143;28;20058;-68
2022/10/15 11:51:47;;;;;;;23.35;15.68;;;15.10;99.90;;;;;;4941678;29;20047;-68
2022/10/15 11:54:26;;;;;;;24.70;16.17;;;15.10;99.90;;;;;;4957757;29;20494;-68
2022/10/15 11:56:54;;;;;;;28.15;16.83;;;15.00;99.90;;;;;;4939198;29;20039;-69
2022/10/15 11:59:34;;;;;;;27.52;16.42;;;15.10;99.90;;;;;;4950987;28;20050;-68
2022/10/15 12:02:07;;;;;;;25.55;17.05;;;15.10;99.90;;;;;;4968215;28;20521;-68
2022/10/15 12:04:55;;;;;;;22.02;15.07;;;15.10;99.90;;;;;;4956885;29;20126;-68
2022/10/15 12:07:32;;;;;;;24.85;15.82;;;15.10;99.90;;;;;;4952005;29;20062;-69
2022/10/15 12:10:31;;;;;;;28.67;17.13;;;15.10;99.90;;;;;;4940176;29;20051;-70
2022/10/15 12:13:25;;;;;;;30.25;18.75;;;15.00;99.90;;;;;;4930635;29;20043;-69
2022/10/15 12:16:25;;;;;;;30.95;18.77;;;15.00;99.90;;;;;;4940324;29;20046;-69
2022/10/15 12:18:53;;;;;;;27.05;18.23;;;15.10;99.90;;;;;;4945777;29;20497;-71
2022/10/15 12:21:38;;;;;;;30.08;19.02;;;14.90;99.90;;;;;;4940085;29;20054;-70
2022/10/15 12:24:24;;;;;;;31.63;19.33;;;15.10;99.90;;;;;;4953700;29;20502;-70
2022/10/15 12:26:50;;;;;;;30.75;19.13;;;15.00;99.90;;;;;;4940298;29;20047;-69
2022/10/15 12:29:20;;;;;;;33.20;18.58;;;15.10;99.90;;;;;;4962008;28;20046;-69
2022/10/15 12:31:54;;;;;;;35.25;20.40;;;15.20;99.90;;;;;;4963357;28;20095;-70
2022/10/15 12:34:31;;;;;;;27.50;17.00;;;15.00;99.90;;;;;;4959766;28;20047;-69
2022/10/15 12:37:14;;;;;;;36.03;19.33;;;15.00;99.90;;;;;;4962445;28;20039;-69
2022/10/15 12:39:42;;;;;;;31.83;19.75;;;15.00;99.90;;;;;;4957021;29;20054;-69
2022/10/15 12:42:21;;;;;;;35.08;20.00;;;15.00;99.90;;;;;;4961907;28;20054;-69
2022/10/15 12:44:50;;;;;;;33.70;19.40;;;14.90;99.90;;;;;;4941866;29;20035;-68
2022/10/15 12:47:47;;;;;;;37.83;20.55;;;14.90;99.90;;;;;;4942317;28;20494;-68
2022/10/15 12:50:25;;;;;;;37.17;20.90;;;14.90;99.90;;;;;;4939844;29;20043;-68